createdAt,value
2022-09-12T00:00:44.921Z,13.02
2022-09-12T00:03:06.844Z,13.05
2022-09-12T00:05:09.212Z,12.92
2022-09-12T00:07:11.124Z,12.95
2022-09-12T00:09:14.734Z,12.85
2022-09-12T00:11:17.176Z,12.92
2022-09-12T00:13:19.129Z,13.04
2022-09-12T00:15:21.097Z,13.05
2022-09-12T00:17:23.376Z,12.95
2022-09-12T00:19:27.047Z,12.94
2022-09-12T00:21:29.961Z,12.86
2022-09-12T00:23:33.332Z,12.85
2022-09-12T00:25:35.355Z,12.91
2022-09-12T00:27:37.249Z,13.07
2022-09-12T00:29:39.504Z,12.97
2022-09-12T00:31:41.494Z,13.11
2022-09-12T00:33:44.273Z,13.05
2022-09-12T00:35:52.288Z,13.00
2022-09-12T00:37:54.128Z,13.05
2022-09-12T00:39:58.775Z,13.09
2022-09-12T00:42:01.180Z,13.14
2022-09-12T00:44:23.007Z,13.14
2022-09-12T00:46:48.437Z,13.12
2022-09-12T00:49:06.453Z,13.04
2022-09-12T00:51:09.136Z,13.09
2022-09-12T00:53:11.167Z,12.98
2022-09-12T00:55:36.930Z,13.10
2022-09-12T00:57:50.559Z,13.03
2022-09-12T01:00:22.929Z,13.04
2022-09-12T01:02:25.554Z,13.14
2022-09-12T01:04:29.070Z,13.05
2022-09-12T01:06:37.711Z,12.98
2022-09-12T01:08:41.812Z,12.92
2022-09-12T01:10:44.320Z,12.94
2022-09-12T01:12:47.132Z,13.10
2022-09-12T01:14:49.415Z,12.97
2022-09-12T01:16:51.789Z,13.16
2022-09-12T01:19:08.759Z,13.09
2022-09-12T01:21:45.462Z,13.21
2022-09-12T01:24:21.938Z,13.25
2022-09-12T01:27:00.192Z,13.26
2022-09-12T01:30:14.496Z,13.13
2022-09-12T01:32:38.226Z,13.21
2022-09-12T01:34:55.710Z,13.08
2022-09-12T01:37:21.795Z,13.27
2022-09-12T01:39:50.626Z,13.27
2022-09-12T01:42:07.777Z,13.23
2022-09-12T01:44:34.456Z,13.02
2022-09-12T01:46:36.784Z,13.21
2022-09-12T01:48:45.926Z,13.10
2022-09-12T01:51:01.992Z,13.19
2022-09-12T01:53:14.915Z,13.03
2022-09-12T01:55:38.679Z,13.10
2022-09-12T01:57:52.590Z,13.14
2022-09-12T02:00:00.916Z,12.95
2022-09-12T02:02:29.160Z,13.12
2022-09-12T02:04:58.135Z,13.10
2022-09-12T02:07:13.299Z,13.03
2022-09-12T02:09:24.584Z,13.10
2022-09-12T02:11:26.632Z,13.06
2022-09-12T02:13:38.289Z,13.03
2022-09-12T02:15:54.332Z,13.03
2022-09-12T02:18:00.843Z,12.93
2022-09-12T02:20:31.336Z,12.98
2022-09-12T02:22:41.672Z,13.09
2022-09-12T02:24:48.956Z,13.05
2022-09-12T02:27:26.357Z,13.13
2022-09-12T02:29:28.505Z,13.04
2022-09-12T02:31:47.952Z,13.07
2022-09-12T02:34:15.708Z,13.03
2022-09-12T02:36:37.934Z,12.99
2022-09-12T02:38:49.163Z,12.88
2022-09-12T02:40:51.616Z,12.79
2022-09-12T02:42:53.582Z,12.92
2022-09-12T02:44:57.262Z,12.79
2022-09-12T02:47:08.978Z,12.82
2022-09-12T02:49:14.760Z,12.94
2022-09-12T02:51:22.928Z,12.92
2022-09-12T02:53:26.947Z,12.73
2022-09-12T02:55:29.306Z,12.96
2022-09-12T02:57:32.415Z,12.88
2022-09-12T02:59:34.761Z,12.94
2022-09-12T03:02:04.063Z,13.03
2022-09-12T03:04:37.828Z,12.96
2022-09-12T03:07:18.790Z,12.93
2022-09-12T03:10:07.097Z,12.82
2022-09-12T03:12:46.789Z,12.92
2022-09-12T03:15:07.728Z,12.92
2022-09-12T03:17:29.337Z,12.90
2022-09-12T03:19:56.266Z,12.89
2022-09-12T03:22:35.441Z,12.69
2022-09-12T03:24:49.334Z,12.89
2022-09-12T03:26:58.461Z,12.91
2022-09-12T03:29:04.034Z,12.79
2022-09-12T03:31:15.213Z,12.73
2022-09-12T03:33:25.530Z,12.95
2022-09-12T03:35:29.724Z,12.79
2022-09-12T03:37:32.103Z,12.90
2022-09-12T03:39:34.001Z,13.07
2022-09-12T03:41:35.947Z,13.04
2022-09-12T03:43:38.188Z,12.95
2022-09-12T03:45:40.264Z,13.04
2022-09-12T03:47:42.368Z,13.05
2022-09-12T03:49:44.699Z,13.02
2022-09-12T03:51:46.586Z,13.13
2022-09-12T03:53:48.610Z,13.01
2022-09-12T03:55:50.903Z,13.04
2022-09-12T03:57:54.583Z,13.03
2022-09-12T03:59:56.626Z,13.04
2022-09-12T04:01:59.170Z,13.04
2022-09-12T04:04:01.073Z,13.19
2022-09-12T04:06:03.124Z,13.10
2022-09-12T04:08:06.424Z,13.18
2022-09-12T04:10:10.025Z,13.03
2022-09-12T04:12:13.431Z,13.21
2022-09-12T04:14:17.976Z,13.02
2022-09-12T04:16:21.500Z,13.04
2022-09-12T04:18:27.387Z,12.94
2022-09-12T04:20:31.095Z,12.92
2022-09-12T04:22:34.258Z,13.01
2022-09-12T04:24:39.670Z,12.89
2022-09-12T04:26:44.024Z,12.86
2022-09-12T04:28:47.632Z,12.93
2022-09-12T04:30:56.890Z,13.00
2022-09-12T04:33:04.946Z,13.26
2022-09-12T04:35:13.160Z,13.25
2022-09-12T04:37:21.873Z,13.17
2022-09-12T04:39:25.976Z,13.38
2022-09-12T04:41:40.046Z,13.66
2022-09-12T04:43:47.706Z,14.14
2022-09-12T04:45:53.923Z,14.54
2022-09-12T04:48:02.249Z,14.94
2022-09-12T04:50:15.212Z,15.51
2022-09-12T04:54:44.581Z,16.51
2022-09-12T04:56:57.595Z,16.97
2022-09-12T04:59:33.774Z,17.62
2022-09-12T05:02:40.571Z,18.38
2022-09-12T07:02:10.894Z,22.59
2022-09-12T07:04:13.157Z,22.38
2022-09-12T07:06:17.578Z,22.24
2022-09-12T07:08:38.370Z,22.46
2022-09-12T07:10:47.605Z,22.40
2022-09-12T07:17:33.551Z,22.37
2022-09-12T07:19:39.378Z,22.50
2022-09-12T07:21:46.076Z,22.76
2022-09-12T07:23:54.642Z,22.98
2022-09-12T07:26:04.938Z,22.93
2022-09-12T07:28:11.750Z,22.71
2022-09-12T07:30:15.170Z,22.56
2022-09-12T07:32:19.752Z,22.73
2022-09-12T07:34:30.293Z,22.61
2022-09-12T07:36:40.607Z,22.45
2022-09-12T07:41:20.793Z,22.15
2022-09-12T07:43:31.385Z,22.15
2022-09-12T07:45:34.091Z,22.01
2022-09-12T07:48:09.749Z,21.86
2022-09-12T12:43:36.598Z,20.77
2022-09-12T12:45:39.825Z,20.64
2022-09-12T12:48:06.253Z,20.43
2022-09-12T12:50:18.382Z,20.45
2022-09-12T12:52:22.142Z,20.16
2022-09-12T12:54:40.266Z,20.25
2022-09-12T12:56:47.192Z,20.19
2022-09-12T12:59:07.960Z,20.06
2022-09-12T13:01:27.742Z,20.00
2022-09-12T20:45:47.048Z,13.41
2022-09-12T20:47:49.485Z,13.27
2022-09-12T20:49:51.694Z,13.21
2022-09-12T20:51:53.665Z,13.07
2022-09-12T20:54:01.402Z,12.99
2022-09-12T20:56:04.152Z,12.95
2022-09-12T20:58:06.097Z,13.04
2022-09-12T21:00:10.789Z,12.89
2022-09-12T21:02:15.261Z,13.01
2022-09-12T21:04:18.531Z,13.03
2022-09-12T21:06:26.028Z,12.62
2022-09-12T21:08:31.513Z,12.72
2022-09-12T21:10:45.343Z,12.59
2022-09-12T21:12:50.041Z,12.64
2022-09-12T21:14:58.065Z,12.61
2022-09-12T21:17:02.716Z,12.55
2022-09-12T21:19:06.365Z,12.51
2022-09-12T21:21:11.261Z,12.52
2022-09-12T21:23:13.342Z,12.39
2022-09-12T21:25:15.520Z,12.47
2022-09-12T21:27:17.497Z,12.55
2022-09-12T21:29:19.440Z,12.59
2022-09-12T21:31:21.973Z,12.63
2022-09-12T21:33:24.475Z,12.69
2022-09-12T21:35:26.504Z,12.70
2022-09-12T21:37:29.079Z,12.59
2022-09-12T21:39:31.152Z,12.70
2022-09-12T21:41:33.341Z,12.61
2022-09-12T21:43:36.643Z,12.48
2022-09-12T21:45:39.183Z,12.44
2022-09-12T21:47:41.611Z,12.37
2022-09-12T21:49:44.097Z,12.48
2022-09-12T21:51:46.412Z,12.44
2022-09-12T21:53:49.169Z,12.46
2022-09-12T21:55:52.644Z,12.14
2022-09-12T21:57:56.555Z,11.89
2022-09-12T21:59:58.963Z,11.93
2022-09-12T22:02:01.839Z,11.76
2022-09-12T22:04:03.859Z,11.88
2022-09-12T22:06:06.425Z,12.01
2022-09-12T22:08:10.460Z,11.84
2022-09-12T22:10:12.458Z,11.74
2022-09-12T22:12:14.414Z,11.93
2022-09-12T22:14:16.933Z,11.78
2022-09-12T22:16:19.238Z,12.02
2022-09-12T22:18:21.307Z,11.90
2022-09-12T22:20:23.908Z,11.71
2022-09-12T22:22:26.271Z,11.82
2022-09-12T22:24:28.473Z,11.73
2022-09-12T22:26:31.783Z,11.80
2022-09-12T22:28:33.906Z,11.83
2022-09-12T22:30:35.946Z,12.03
2022-09-12T22:32:38.286Z,11.85
2022-09-12T22:34:40.462Z,12.05
2022-09-12T22:36:42.876Z,11.78
2022-09-12T22:38:45.627Z,11.89
2022-09-12T22:40:48.032Z,11.84
2022-09-12T22:42:52.938Z,11.97
2022-09-12T22:44:55.868Z,11.79
2022-09-12T22:46:58.074Z,11.87
2022-09-12T22:49:00.629Z,11.89
2022-09-12T22:51:02.934Z,11.77
2022-09-12T22:53:05.117Z,11.69
2022-09-12T22:55:08.491Z,11.69
2022-09-12T22:57:10.859Z,11.70
2022-09-12T22:59:13.388Z,11.68
2022-09-12T23:01:15.682Z,11.55
2022-09-12T23:03:20.807Z,11.43
2022-09-12T23:05:31.602Z,11.47
2022-09-12T23:07:37.989Z,11.66
2022-09-12T23:09:46.566Z,11.71
2022-09-12T23:11:50.084Z,11.56
2022-09-12T23:13:54.263Z,11.57
2022-09-12T23:16:06.560Z,11.70
2022-09-12T23:18:14.883Z,11.40
2022-09-12T23:20:24.688Z,11.50
2022-09-12T23:22:28.033Z,11.70
2022-09-12T23:24:32.923Z,11.51
2022-09-12T23:26:39.481Z,11.49
2022-09-12T23:28:49.796Z,11.51
2022-09-12T23:30:57.831Z,11.49
2022-09-12T23:35:25.715Z,11.37
2022-09-12T23:37:29.616Z,11.64
2022-09-12T23:39:32.632Z,11.64
2022-09-12T23:41:34.834Z,11.67
2022-09-12T23:43:37.500Z,11.51
2022-09-12T23:45:40.286Z,11.75
2022-09-12T23:47:42.676Z,11.66
2022-09-12T23:49:45.317Z,11.57
2022-09-12T23:51:48.537Z,11.58
2022-09-12T23:53:51.104Z,11.48
2022-09-12T23:55:54.537Z,11.42
2022-09-12T23:57:57.514Z,11.57
